Flight Track Log - Related Links

Times and Time Zones

All times are in EDT time to prevent confusion due to time zone crossing. See the QLK118D flight status page for this flight to view local times or setup timezone preferences in your user account.

Time Position Orientation Groundspeed Altitude Reporting Facility
EDT Latitude Longitude Course Direction KTS MPH feet Rate Location/Type
Mon 05:07:13 AM -33.9451 151.1870 North 125 144 500  Level Aus ATC (RADAR)
Mon 05:07:48 AM -33.9190 151.1876 North 155 178 1,800 1,971 Climbing Aus ATC (RADAR)
Mon 05:08:23 AM -33.8875 151.1916 North 191 220 2,800 2,000 Climbing Aus ATC (RADAR)
Mon 05:09:03 AM -33.8476 151.1958 North 208 239 4,300 1,760 Climbing Aus ATC (RADAR)
Mon 05:09:38 AM -33.8102 151.2032 North 230 265 5,000 494 Climbing Aus ATC (RADAR)
Mon 05:10:28 AM -33.7591 151.2435 33° Northeast 261 300 5,000 480 Level Aus ATC (RADAR)
Mon 05:10:53 AM -33.7329 151.2625 31° Northeast 264 304 5,600 1,500 Climbing Aus ATC (RADAR)
Mon 05:11:28 AM -33.6958 151.2894 31° Northeast 269 310 6,500 1,671 Climbing Aus ATC (RADAR)
Mon 05:12:12 AM -33.6443 151.3272 31° Northeast 289 333 7,800 1,823 Climbing Aus ATC (RADAR)
Mon 05:12:47 AM -33.6024 151.3570 31° Northeast 297 342 8,900 1,886 Climbing Aus ATC (RADAR)
Mon 05:13:22 AM -33.5598 151.3869 30° Northeast 301 346 10,000 1,800 Climbing Aus ATC (RADAR)
Mon 05:13:57 AM -33.5170 151.4171 31° Northeast 305 351 11,000 1,629 Climbing Aus ATC (RADAR)
Mon 05:14:32 AM -33.4730 151.4463 29° Northeast 311 358 11,900 1,579 Climbing Aus ATC (RADAR)
Mon 05:15:32 AM -33.3948 151.4901 25° Northeast 308 354 13,500 1,553 Climbing Aus ATC (RADAR)
Mon 05:15:57 AM -33.3622 151.5084 25° Northeast 308 354 14,100 1,300 Climbing Aus ATC (RADAR)
Mon 05:16:32 AM -33.3154 151.5353 26° Northeast 317 365 14,800 1,120 Climbing Aus ATC (RADAR)
Mon 05:17:12 AM -33.2609 151.5664 25° Northeast 324 373 15,500 1,125 Climbing Aus ATC (RADAR)
Mon 05:17:52 AM -33.2058 151.5984 26° Northeast 330 380 16,300 1,129 Climbing Aus ATC (RADAR)
Mon 05:18:37 AM -33.1430 151.6346 26° Northeast 331 381 17,100 1,114 Climbing Aus ATC (RADAR)
Mon 05:19:02 AM -33.1075 151.6546 25° Northeast 333 383 17,600 1,031 Climbing Aus ATC (RADAR)
Mon 05:19:41 AM -33.0536 151.6855 26° Northeast 337 388 18,200 991 Climbing Aus ATC (RADAR)
Mon 05:20:57 AM -32.9441 151.7489 26° Northeast 339 390 19,500 1,019 Climbing Aus ATC (RADAR)
Mon 05:21:27 AM -32.9015 151.7732 26° Northeast 340 391 20,000 923 Climbing Aus ATC (RADAR)
Mon 05:22:02 AM -32.8519 151.8016 26° Northeast 338 389 20,500 835 Climbing Aus ATC (RADAR)
Mon 05:22:46 AM -32.7896 151.8363 25° Northeast 342 394 21,100 462 Climbing Aus ATC (RADAR)
Mon 05:23:20 AM -32.7422 151.8748 34° Northeast 351 404 21,100  Level Aus ATC (RADAR)
Mon 05:24:07 AM -32.6761 151.9277 34° Northeast 369 425 21,100  Level Aus ATC (RADAR)
Mon 05:24:36 AM -32.6320 151.9620 33° Northeast 377 434 21,100  Level Aus ATC (RADAR)
Mon 05:25:40 AM -32.5381 152.0326 32° Northeast 377 434 21,100  Level Aus ATC (RADAR)
Mon 05:26:01 AM -32.5052 152.0579 33° Northeast 386 444 21,100  Level Aus ATC (RADAR)
Mon 05:26:26 AM -32.4682 152.0866 33° Northeast 385 443 21,100  Level Aus ATC (RADAR)
Mon 05:27:01 AM -32.4168 152.1263 33° Northeast 379 436 21,100  Level Aus ATC (RADAR)
Mon 05:27:46 AM -32.3506 152.1767 33° Northeast 376 433 21,100  Level Aus ATC (RADAR)
Mon 05:28:21 AM -32.2988 152.2158 33° Northeast 379 436 21,100  Level Aus ATC (RADAR)
Mon 05:29:10 AM -32.2280 152.2699 33° Northeast 373 429 21,100  Level Aus ATC (RADAR)
Mon 05:29:35 AM -32.1912 152.2978 33° Northeast 373 429 21,100  Level Aus ATC (RADAR)
Mon 05:30:10 AM -32.1396 152.3369 33° Northeast 372 428 21,100  Level Aus ATC (RADAR)
Mon 05:31:06 AM -32.0557 152.4005 33° Northeast 378 435 21,100  Level Aus ATC (RADAR)
Mon 05:31:31 AM -32.0189 152.4284 33° Northeast 379 436 21,100  Level Aus ATC (RADAR)
Mon 05:32:06 AM -31.9670 152.4676 33° Northeast 380 437 21,100  Level Aus ATC (RADAR)
Mon 05:32:51 AM -31.9001 152.5180 33° Northeast 383 441 21,100  Level Aus ATC (RADAR)
Mon 05:33:26 AM -31.8474 152.5574 32° Northeast 384 442 21,100  Level Aus ATC (RADAR)
Mon 05:34:11 AM -31.7800 152.6088 33° Northeast 385 443 21,100  Level Aus ATC (RADAR)
Mon 05:34:36 AM -31.7421 152.6371 32° Northeast 387 445 21,100  Level Aus ATC (RADAR)
Mon 05:35:11 AM -31.6861 152.6678 25° Northeast 375 432 21,100 -56 Level Aus ATC (RADAR)
Mon 05:36:24 AM -31.5573 152.6896 North 381 438 21,000 -424 Descending Aus ATC (RADAR)
Mon 05:36:50 AM -31.5104 152.6993 10° North 381 438 20,400 -1,279 Descending Aus ATC (RADAR)
Mon 05:37:25 AM -31.4504 152.7106 North 376 433 19,700 -1,200 Descending Aus ATC (RADAR)
Mon 05:38:05 AM -31.3819 152.7241 10° North 375 432 18,900 -1,139 Descending Aus ATC (RADAR)
Mon 05:38:44 AM -31.3171 152.7375 10° North 370 426 18,200 -1,200 Descending Aus ATC (RADAR)
Mon 05:39:15 AM -31.2615 152.7475 North 378 435 17,500 -1,200 Descending Aus ATC (RADAR)
Mon 05:39:54 AM -31.1968 152.7611 10° North 368 423 16,800 -1,156 Descending Aus ATC (RADAR)
Mon 05:41:04 AM -31.0794 152.7855 10° North 358 412 15,400 -1,187 Descending Aus ATC (RADAR)
Mon 05:41:25 AM -31.0424 152.7925 North 360 414 15,000 -1,565 Descending Aus ATC (RADAR)
Mon 05:41:50 AM -31.0014 152.8008 10° North 360 414 14,200 -1,900 Descending Aus ATC (RADAR)
Mon 05:42:25 AM -30.9467 152.8126 11° North 346 398 13,100 -1,800 Descending Aus ATC (RADAR)
Mon 05:43:10 AM -30.8768 152.8261 North 343 395 11,800 -1,725 Descending Aus ATC (RADAR)
Mon 05:43:45 AM -30.8246 152.8353 North 330 380 10,800 -1,714 Descending Aus ATC (RADAR)
Mon 05:44:20 AM -30.7754 152.8447 North 315 362 9,800 -1,629 Descending Aus ATC (RADAR)
Mon 05:44:55 AM -30.7299 152.8552 11° North 295 339 8,900 -1,500 Descending Aus ATC (RADAR)
Mon 05:46:00 AM -30.6452 152.8699 North 285 328 7,300 -1,467 Descending Aus ATC (RADAR)
Mon 05:46:25 AM -30.6146 152.8774 12° North 279 321 6,700 -1,469 Descending Aus ATC (RADAR)
Mon 05:46:49 AM -30.5869 152.8866 16° North 266 306 6,100 -1,395 Descending Aus ATC (RADAR)
Mon 05:47:08 AM -30.5610 152.8862 359° North 273 314 5,700 -1,263 Descending Aus ATC (RADAR)
Mon 05:49:34 AM -30.3807 153.0589 18° North -1,940 Descending Aus ATC (Calculated)
Mon 05:49:55 AM -30.3807 153.0589 40° Northeast 300 857 Climbing Aus ATC (Calculated)
Mon 05:51:00 AM -30.3206 153.1164 36° Northeast  Level Estimated
Mon 05:52:00 AM -30.3206 153.1164 North  Level Estimated
Mon 05:53:00 AM -30.3206 153.1164 North  Level Estimated
Mon 05:54:00 AM -30.3206 153.1164 21° North  Level Estimated

Login

Don't have an account? Register now (free) for customized features, flight alerts, and more!